<?xml version="1.0" encoding="UTF-8" standalone="no" ?>
<gpx xmlns="http://www.topografix.com/GPX/1/1" creator="CompeGPS" version="1.1" xmlns:xsi="http://www.w3.org/2001/XMLSchema-instance" xsi:schemaLocation="http://www.topografix.com/GPX/1/1 http://www.topografix.com/GPX/1/1/gpx.xsd http://www.garmin.com/xmlschemas/GpxExtensions/v3 http://www.garmin.com/xmlschemas/GpxExtensionsv3.xsd http://www.garmin.com/xmlschemas/TrackPointExtension/v1 http://www.garmin.com/xmlschemas/TrackPointExtensionv1.xsd" xmlns:gpxtpx="http://www.garmin.com/xmlschemas/TrackPointExtension/v1">
  <metadata>
    <link href="http://www.compegps.com">
      <text>CompeGPS TEAM, SL</text>
    </link>
    <time>2014-03-08T19:45:05Z</time>
    <bounds maxlat="43.641253" maxlon="1.620463" minlat="43.631541" minlon="1.597539"/>
  </metadata>
<wpt lat="43.637343" lon="1.597539">
<ele>220</ele>
<name>Lavalette</name>
</wpt>
<wpt lat="43.631602" lon="1.612848">
<ele>167</ele>
<name>Bifurcation PR</name>
</wpt>
<wpt lat="43.633390" lon="1.616313">
<ele>220</ele>
<name>Pigeonnier</name>
</wpt>
<wpt lat="43.637833" lon="1.615762">
<ele>195</ele>
<name>Lac de la Tuilerie</name>
</wpt>
<wpt lat="43.641241" lon="1.615469">
<ele>210</ele>
<name>Fontaine</name>
</wpt>
<wpt lat="43.636131" lon="1.611836">
<ele>175</ele>
<name>Vieux pont</name>
</wpt>
<trk>
    <name>Lavalette</name>
    <trkseg>
      <trkpt lat="43.637343" lon="1.597539">
        <ele>217.6</ele>
        <time>2014-03-08T13:37:50Z</time>
        <name>Lavalette</name>
      </trkpt>
      <trkpt lat="43.637276" lon="1.597646">
        <ele>217.4</ele>
        <time>2014-03-08T13:38:03Z</time>
      </trkpt>
      <trkpt lat="43.637194" lon="1.597767">
        <ele>216.4</ele>
        <time>2014-03-08T13:38:19Z</time>
      </trkpt>
      <trkpt lat="43.637126" lon="1.597868">
        <ele>215.6</ele>
        <time>2014-03-08T13:38:31Z</time>
      </trkpt>
      <trkpt lat="43.637051" lon="1.597957">
        <ele>214.7</ele>
        <time>2014-03-08T13:38:46Z</time>
      </trkpt>
      <trkpt lat="43.636971" lon="1.598047">
        <ele>213.9</ele>
        <time>2014-03-08T13:39:01Z</time>
      </trkpt>
      <trkpt lat="43.636900" lon="1.598140">
        <ele>212.6</ele>
        <time>2014-03-08T13:39:12Z</time>
      </trkpt>
      <trkpt lat="43.636828" lon="1.598201">
        <ele>211.6</ele>
        <time>2014-03-08T13:39:32Z</time>
      </trkpt>
      <trkpt lat="43.636745" lon="1.598273">
        <ele>210.7</ele>
        <time>2014-03-08T13:39:39Z</time>
      </trkpt>
      <trkpt lat="43.636668" lon="1.598342">
        <ele>209.9</ele>
        <time>2014-03-08T13:39:46Z</time>
      </trkpt>
      <trkpt lat="43.636590" lon="1.598426">
        <ele>208.7</ele>
        <time>2014-03-08T13:39:54Z</time>
      </trkpt>
      <trkpt lat="43.636526" lon="1.598512">
        <ele>206.7</ele>
        <time>2014-03-08T13:40:04Z</time>
      </trkpt>
      <trkpt lat="43.636449" lon="1.598602">
        <ele>205.3</ele>
        <time>2014-03-08T13:40:13Z</time>
      </trkpt>
      <trkpt lat="43.636374" lon="1.598681">
        <ele>204.4</ele>
        <time>2014-03-08T13:40:22Z</time>
      </trkpt>
      <trkpt lat="43.636284" lon="1.598739">
        <ele>203.0</ele>
        <time>2014-03-08T13:40:30Z</time>
      </trkpt>
      <trkpt lat="43.636224" lon="1.598832">
        <ele>201.3</ele>
        <time>2014-03-08T13:40:41Z</time>
      </trkpt>
      <trkpt lat="43.636153" lon="1.598928">
        <ele>200.3</ele>
        <time>2014-03-08T13:40:50Z</time>
      </trkpt>
      <trkpt lat="43.636085" lon="1.599001">
        <ele>198.8</ele>
        <time>2014-03-08T13:41:00Z</time>
      </trkpt>
      <trkpt lat="43.635993" lon="1.599076">
        <ele>197.0</ele>
        <time>2014-03-08T13:41:11Z</time>
      </trkpt>
      <trkpt lat="43.635927" lon="1.599165">
        <ele>195.8</ele>
        <time>2014-03-08T13:41:21Z</time>
      </trkpt>
      <trkpt lat="43.635853" lon="1.599235">
        <ele>194.2</ele>
        <time>2014-03-08T13:41:31Z</time>
      </trkpt>
      <trkpt lat="43.635775" lon="1.599298">
        <ele>192.2</ele>
        <time>2014-03-08T13:41:42Z</time>
      </trkpt>
      <trkpt lat="43.635697" lon="1.599368">
        <ele>190.3</ele>
        <time>2014-03-08T13:41:54Z</time>
      </trkpt>
      <trkpt lat="43.635601" lon="1.599425">
        <ele>188.7</ele>
        <time>2014-03-08T13:42:05Z</time>
      </trkpt>
      <trkpt lat="43.635516" lon="1.599480">
        <ele>186.7</ele>
        <time>2014-03-08T13:42:17Z</time>
      </trkpt>
      <trkpt lat="43.635436" lon="1.599533">
        <ele>184.5</ele>
        <time>2014-03-08T13:42:29Z</time>
      </trkpt>
      <trkpt lat="43.635364" lon="1.599602">
        <ele>182.5</ele>
        <time>2014-03-08T13:42:41Z</time>
      </trkpt>
      <trkpt lat="43.635292" lon="1.599683">
        <ele>180.2</ele>
        <time>2014-03-08T13:42:53Z</time>
      </trkpt>
      <trkpt lat="43.635205" lon="1.599741">
        <ele>178.0</ele>
        <time>2014-03-08T13:43:05Z</time>
      </trkpt>
      <trkpt lat="43.635121" lon="1.599815">
        <ele>175.6</ele>
        <time>2014-03-08T13:43:17Z</time>
      </trkpt>
      <trkpt lat="43.635033" lon="1.599866">
        <ele>173.7</ele>
        <time>2014-03-08T13:43:29Z</time>
      </trkpt>
      <trkpt lat="43.634949" lon="1.599929">
        <ele>172.3</ele>
        <time>2014-03-08T13:43:39Z</time>
      </trkpt>
      <trkpt lat="43.634858" lon="1.600006">
        <ele>170.4</ele>
        <time>2014-03-08T13:43:50Z</time>
      </trkpt>
      <trkpt lat="43.634781" lon="1.600055">
        <ele>168.7</ele>
        <time>2014-03-08T13:44:00Z</time>
      </trkpt>
      <trkpt lat="43.634701" lon="1.600118">
        <ele>167.8</ele>
        <time>2014-03-08T13:44:10Z</time>
      </trkpt>
      <trkpt lat="43.634613" lon="1.600200">
        <ele>166.8</ele>
        <time>2014-03-08T13:44:19Z</time>
      </trkpt>
      <trkpt lat="43.634533" lon="1.600259">
        <ele>166.3</ele>
        <time>2014-03-08T13:44:28Z</time>
      </trkpt>
      <trkpt lat="43.634442" lon="1.600327">
        <ele>165.7</ele>
        <time>2014-03-08T13:44:39Z</time>
      </trkpt>
      <trkpt lat="43.634353" lon="1.600402">
        <ele>165.5</ele>
        <time>2014-03-08T13:44:49Z</time>
      </trkpt>
      <trkpt lat="43.634271" lon="1.600464">
        <ele>165.1</ele>
        <time>2014-03-08T13:44:59Z</time>
      </trkpt>
      <trkpt lat="43.634178" lon="1.600533">
        <ele>164.8</ele>
        <time>2014-03-08T13:45:09Z</time>
      </trkpt>
      <trkpt lat="43.634096" lon="1.600611">
        <ele>164.4</ele>
        <time>2014-03-08T13:45:18Z</time>
      </trkpt>
      <trkpt lat="43.633998" lon="1.600666">
        <ele>164.4</ele>
        <time>2014-03-08T13:45:27Z</time>
      </trkpt>
      <trkpt lat="43.633910" lon="1.600724">
        <ele>164.4</ele>
        <time>2014-03-08T13:45:36Z</time>
      </trkpt>
      <trkpt lat="43.633826" lon="1.600788">
        <ele>163.9</ele>
        <time>2014-03-08T13:45:45Z</time>
      </trkpt>
      <trkpt lat="43.633738" lon="1.600862">
        <ele>163.8</ele>
        <time>2014-03-08T13:45:54Z</time>
      </trkpt>
      <trkpt lat="43.633655" lon="1.600921">
        <ele>163.5</ele>
        <time>2014-03-08T13:46:03Z</time>
      </trkpt>
      <trkpt lat="43.633562" lon="1.601000">
        <ele>163.3</ele>
        <time>2014-03-08T13:46:14Z</time>
      </trkpt>
      <trkpt lat="43.633478" lon="1.601071">
        <ele>163.4</ele>
        <time>2014-03-08T13:46:23Z</time>
      </trkpt>
      <trkpt lat="43.633396" lon="1.601123">
        <ele>163.6</ele>
        <time>2014-03-08T13:46:31Z</time>
      </trkpt>
      <trkpt lat="43.633313" lon="1.601181">
        <ele>163.6</ele>
        <time>2014-03-08T13:46:40Z</time>
      </trkpt>
      <trkpt lat="43.633234" lon="1.601263">
        <ele>163.4</ele>
        <time>2014-03-08T13:46:48Z</time>
      </trkpt>
      <trkpt lat="43.633168" lon="1.601330">
        <ele>163.4</ele>
        <time>2014-03-08T13:47:06Z</time>
      </trkpt>
      <trkpt lat="43.633113" lon="1.601337">
        <ele>163.5</ele>
        <time>2014-03-08T13:47:46Z</time>
      </trkpt>
      <trkpt lat="43.633020" lon="1.601382">
        <ele>163.4</ele>
        <time>2014-03-08T13:47:55Z</time>
      </trkpt>
      <trkpt lat="43.632928" lon="1.601350">
        <ele>163.3</ele>
        <time>2014-03-08T13:48:04Z</time>
      </trkpt>
      <trkpt lat="43.632834" lon="1.601289">
        <ele>162.9</ele>
        <time>2014-03-08T13:48:14Z</time>
      </trkpt>
      <trkpt lat="43.632739" lon="1.601291">
        <ele>162.4</ele>
        <time>2014-03-08T13:48:24Z</time>
      </trkpt>
      <trkpt lat="43.632679" lon="1.601425">
        <ele>162.4</ele>
        <time>2014-03-08T13:48:34Z</time>
      </trkpt>
      <trkpt lat="43.632639" lon="1.601550">
        <ele>162.4</ele>
        <time>2014-03-08T13:48:42Z</time>
      </trkpt>
      <trkpt lat="43.632591" lon="1.601663">
        <ele>162.1</ele>
        <time>2014-03-08T13:48:50Z</time>
      </trkpt>
      <trkpt lat="43.632548" lon="1.601791">
        <ele>162.3</ele>
        <time>2014-03-08T13:49:00Z</time>
      </trkpt>
      <trkpt lat="43.632512" lon="1.601919">
        <ele>162.6</ele>
        <time>2014-03-08T13:49:09Z</time>
      </trkpt>
      <trkpt lat="43.632472" lon="1.602040">
        <ele>162.3</ele>
        <time>2014-03-08T13:49:20Z</time>
      </trkpt>
      <trkpt lat="43.632420" lon="1.602159">
        <ele>162.2</ele>
        <time>2014-03-08T13:49:34Z</time>
      </trkpt>
      <trkpt lat="43.632383" lon="1.602302">
        <ele>162.4</ele>
        <time>2014-03-08T13:49:42Z</time>
      </trkpt>
      <trkpt lat="43.632346" lon="1.602414">
        <ele>162.8</ele>
        <time>2014-03-08T13:49:50Z</time>
      </trkpt>
      <trkpt lat="43.632297" lon="1.602539">
        <ele>163.2</ele>
        <time>2014-03-08T13:49:59Z</time>
      </trkpt>
      <trkpt lat="43.632248" lon="1.602675">
        <ele>163.1</ele>
        <time>2014-03-08T13:50:08Z</time>
      </trkpt>
      <trkpt lat="43.632205" lon="1.602803">
        <ele>162.7</ele>
        <time>2014-03-08T13:50:17Z</time>
      </trkpt>
      <trkpt lat="43.632163" lon="1.602921">
        <ele>162.7</ele>
        <time>2014-03-08T13:50:25Z</time>
      </trkpt>
      <trkpt lat="43.632130" lon="1.603035">
        <ele>162.6</ele>
        <time>2014-03-08T13:50:33Z</time>
      </trkpt>
      <trkpt lat="43.632091" lon="1.603141">
        <ele>162.3</ele>
        <time>2014-03-08T13:50:41Z</time>
      </trkpt>
      <trkpt lat="43.632057" lon="1.603259">
        <ele>162.3</ele>
        <time>2014-03-08T13:50:50Z</time>
      </trkpt>
      <trkpt lat="43.632023" lon="1.603385">
        <ele>162.3</ele>
        <time>2014-03-08T13:50:59Z</time>
      </trkpt>
      <trkpt lat="43.631992" lon="1.603507">
        <ele>162.4</ele>
        <time>2014-03-08T13:51:08Z</time>
      </trkpt>
      <trkpt lat="43.631971" lon="1.603642">
        <ele>162.6</ele>
        <time>2014-03-08T13:51:18Z</time>
      </trkpt>
      <trkpt lat="43.631951" lon="1.603786">
        <ele>162.6</ele>
        <time>2014-03-08T13:51:28Z</time>
      </trkpt>
      <trkpt lat="43.631919" lon="1.603939">
        <ele>162.6</ele>
        <time>2014-03-08T13:51:39Z</time>
      </trkpt>
      <trkpt lat="43.631899" lon="1.604091">
        <ele>162.6</ele>
        <time>2014-03-08T13:51:49Z</time>
      </trkpt>
      <trkpt lat="43.631868" lon="1.604208">
        <ele>162.8</ele>
        <time>2014-03-08T13:51:59Z</time>
      </trkpt>
      <trkpt lat="43.631852" lon="1.604357">
        <ele>163.4</ele>
        <time>2014-03-08T13:52:09Z</time>
      </trkpt>
      <trkpt lat="43.631830" lon="1.604501">
        <ele>163.6</ele>
        <time>2014-03-08T13:52:20Z</time>
      </trkpt>
      <trkpt lat="43.631814" lon="1.604649">
        <ele>163.8</ele>
        <time>2014-03-08T13:52:31Z</time>
      </trkpt>
      <trkpt lat="43.631787" lon="1.604789">
        <ele>164.2</ele>
        <time>2014-03-08T13:52:41Z</time>
      </trkpt>
      <trkpt lat="43.631776" lon="1.604929">
        <ele>164.7</ele>
        <time>2014-03-08T13:52:50Z</time>
      </trkpt>
      <trkpt lat="43.631754" lon="1.605057">
        <ele>165.0</ele>
        <time>2014-03-08T13:52:59Z</time>
      </trkpt>
      <trkpt lat="43.631717" lon="1.605183">
        <ele>165.2</ele>
        <time>2014-03-08T13:53:08Z</time>
      </trkpt>
      <trkpt lat="43.631685" lon="1.605319">
        <ele>165.4</ele>
        <time>2014-03-08T13:53:18Z</time>
      </trkpt>
      <trkpt lat="43.631649" lon="1.605453">
        <ele>165.6</ele>
        <time>2014-03-08T13:53:28Z</time>
      </trkpt>
      <trkpt lat="43.631623" lon="1.605573">
        <ele>165.9</ele>
        <time>2014-03-08T13:53:38Z</time>
      </trkpt>
      <trkpt lat="43.631580" lon="1.605713">
        <ele>166.3</ele>
        <time>2014-03-08T13:53:47Z</time>
      </trkpt>
      <trkpt lat="43.631557" lon="1.605843">
        <ele>166.8</ele>
        <time>2014-03-08T13:53:56Z</time>
      </trkpt>
      <trkpt lat="43.631541" lon="1.605971">
        <ele>167.0</ele>
        <time>2014-03-08T13:54:05Z</time>
      </trkpt>
      <trkpt lat="43.631542" lon="1.606110">
        <ele>166.9</ele>
        <time>2014-03-08T13:54:15Z</time>
      </trkpt>
      <trkpt lat="43.631550" lon="1.606249">
        <ele>167.2</ele>
        <time>2014-03-08T13:54:25Z</time>
      </trkpt>
      <trkpt lat="43.631558" lon="1.606378">
        <ele>167.1</ele>
        <time>2014-03-08T13:54:34Z</time>
      </trkpt>
      <trkpt lat="43.631573" lon="1.606533">
        <ele>167.6</ele>
        <time>2014-03-08T13:54:44Z</time>
      </trkpt>
      <trkpt lat="43.631585" lon="1.606672">
        <ele>167.9</ele>
        <time>2014-03-08T13:54:53Z</time>
      </trkpt>
      <trkpt lat="43.631601" lon="1.606800">
        <ele>167.8</ele>
        <time>2014-03-08T13:55:02Z</time>
      </trkpt>
      <trkpt lat="43.631606" lon="1.606928">
        <ele>167.6</ele>
        <time>2014-03-08T13:55:10Z</time>
      </trkpt>
      <trkpt lat="43.631624" lon="1.607054">
        <ele>167.4</ele>
        <time>2014-03-08T13:55:19Z</time>
      </trkpt>
      <trkpt lat="43.631639" lon="1.607183">
        <ele>167.3</ele>
        <time>2014-03-08T13:55:29Z</time>
      </trkpt>
      <trkpt lat="43.631645" lon="1.607328">
        <ele>166.3</ele>
        <time>2014-03-08T13:55:40Z</time>
      </trkpt>
      <trkpt lat="43.631683" lon="1.607426">
        <ele>164.8</ele>
        <time>2014-03-08T13:55:55Z</time>
      </trkpt>
      <trkpt lat="43.631715" lon="1.607572">
        <ele>166.8</ele>
        <time>2014-03-08T13:56:11Z</time>
      </trkpt>
      <trkpt lat="43.631746" lon="1.607709">
        <ele>167.0</ele>
        <time>2014-03-08T13:56:24Z</time>
      </trkpt>
      <trkpt lat="43.631769" lon="1.607857">
        <ele>167.4</ele>
        <time>2014-03-08T13:56:37Z</time>
      </trkpt>
      <trkpt lat="43.631791" lon="1.608004">
        <ele>167.6</ele>
        <time>2014-03-08T13:56:50Z</time>
      </trkpt>
      <trkpt lat="43.631823" lon="1.608181">
        <ele>167.5</ele>
        <time>2014-03-08T13:57:03Z</time>
      </trkpt>
      <trkpt lat="43.631817" lon="1.608352">
        <ele>167.2</ele>
        <time>2014-03-08T13:57:16Z</time>
      </trkpt>
      <trkpt lat="43.631804" lon="1.608506">
        <ele>167.0</ele>
        <time>2014-03-08T13:57:27Z</time>
      </trkpt>
      <trkpt lat="43.631800" lon="1.608697">
        <ele>167.7</ele>
        <time>2014-03-08T13:57:41Z</time>
      </trkpt>
      <trkpt lat="43.631778" lon="1.608860">
        <ele>168.2</ele>
        <time>2014-03-08T13:57:54Z</time>
      </trkpt>
      <trkpt lat="43.631758" lon="1.609066">
        <ele>168.5</ele>
        <time>2014-03-08T13:58:09Z</time>
      </trkpt>
      <trkpt lat="43.631748" lon="1.609249">
        <ele>168.8</ele>
        <time>2014-03-08T13:58:22Z</time>
      </trkpt>
      <trkpt lat="43.631747" lon="1.609463">
        <ele>168.9</ele>
        <time>2014-03-08T13:58:41Z</time>
      </trkpt>
      <trkpt lat="43.631754" lon="1.609713">
        <ele>169.4</ele>
        <time>2014-03-08T13:58:59Z</time>
      </trkpt>
      <trkpt lat="43.631770" lon="1.609935">
        <ele>169.9</ele>
        <time>2014-03-08T13:59:15Z</time>
      </trkpt>
      <trkpt lat="43.631782" lon="1.610184">
        <ele>170.2</ele>
        <time>2014-03-08T13:59:31Z</time>
      </trkpt>
      <trkpt lat="43.631799" lon="1.610378">
        <ele>170.4</ele>
        <time>2014-03-08T13:59:44Z</time>
      </trkpt>
      <trkpt lat="43.631787" lon="1.610570">
        <ele>170.5</ele>
        <time>2014-03-08T13:59:59Z</time>
      </trkpt>
      <trkpt lat="43.631798" lon="1.610774">
        <ele>171.0</ele>
        <time>2014-03-08T14:00:15Z</time>
      </trkpt>
      <trkpt lat="43.631812" lon="1.610979">
        <ele>171.6</ele>
        <time>2014-03-08T14:00:30Z</time>
      </trkpt>
      <trkpt lat="43.631821" lon="1.611156">
        <ele>172.0</ele>
        <time>2014-03-08T14:00:43Z</time>
      </trkpt>
      <trkpt lat="43.631815" lon="1.611326">
        <ele>172.6</ele>
        <time>2014-03-08T14:00:57Z</time>
      </trkpt>
      <trkpt lat="43.631815" lon="1.611488">
        <ele>173.2</ele>
        <time>2014-03-08T14:01:10Z</time>
      </trkpt>
      <trkpt lat="43.631834" lon="1.611672">
        <ele>173.2</ele>
        <time>2014-03-08T14:01:27Z</time>
      </trkpt>
      <trkpt lat="43.631805" lon="1.611858">
        <ele>170.6</ele>
        <time>2014-03-08T14:01:46Z</time>
      </trkpt>
      <trkpt lat="43.631758" lon="1.612068">
        <ele>168.4</ele>
        <time>2014-03-08T14:02:03Z</time>
      </trkpt>
      <trkpt lat="43.631712" lon="1.612269">
        <ele>167.1</ele>
        <time>2014-03-08T14:02:18Z</time>
      </trkpt>
      <trkpt lat="43.631696" lon="1.612467">
        <ele>166.6</ele>
        <time>2014-03-08T14:02:34Z</time>
      </trkpt>
      <trkpt lat="43.631638" lon="1.612638">
        <ele>166.3</ele>
        <time>2014-03-08T14:02:49Z</time>
      </trkpt>
      <trkpt lat="43.631602" lon="1.612848">
        <ele>166.1</ele>
        <time>2014-03-08T14:03:08Z</time>
        <name>Bifurcation PR</name>
      </trkpt>
      <trkpt lat="43.631664" lon="1.612921">
        <ele>166.6</ele>
        <time>2014-03-08T14:04:22Z</time>
      </trkpt>
      <trkpt lat="43.631717" lon="1.613002">
        <ele>166.5</ele>
        <time>2014-03-08T14:04:48Z</time>
      </trkpt>
      <trkpt lat="43.631819" lon="1.613076">
        <ele>166.8</ele>
        <time>2014-03-08T14:04:59Z</time>
      </trkpt>
      <trkpt lat="43.631921" lon="1.613146">
        <ele>167.3</ele>
        <time>2014-03-08T14:05:11Z</time>
      </trkpt>
      <trkpt lat="43.632007" lon="1.613185">
        <ele>168.0</ele>
        <time>2014-03-08T14:05:48Z</time>
      </trkpt>
      <trkpt lat="43.632105" lon="1.613200">
        <ele>168.9</ele>
        <time>2014-03-08T14:06:02Z</time>
      </trkpt>
      <trkpt lat="43.632212" lon="1.613171">
        <ele>170.4</ele>
        <time>2014-03-08T14:06:20Z</time>
      </trkpt>
      <trkpt lat="43.632377" lon="1.613147">
        <ele>172.1</ele>
        <time>2014-03-08T14:06:38Z</time>
      </trkpt>
      <trkpt lat="43.632514" lon="1.613139">
        <ele>173.3</ele>
        <time>2014-03-08T14:06:54Z</time>
      </trkpt>
      <trkpt lat="43.632634" lon="1.613120">
        <ele>174.7</ele>
        <time>2014-03-08T14:07:07Z</time>
      </trkpt>
      <trkpt lat="43.632733" lon="1.613082">
        <ele>175.8</ele>
        <time>2014-03-08T14:07:21Z</time>
      </trkpt>
      <trkpt lat="43.632840" lon="1.613057">
        <ele>177.8</ele>
        <time>2014-03-08T14:07:38Z</time>
      </trkpt>
      <trkpt lat="43.632942" lon="1.613050">
        <ele>179.7</ele>
        <time>2014-03-08T14:08:06Z</time>
      </trkpt>
      <trkpt lat="43.632950" lon="1.613192">
        <ele>180.5</ele>
        <time>2014-03-08T14:08:32Z</time>
      </trkpt>
      <trkpt lat="43.632960" lon="1.613373">
        <ele>182.5</ele>
        <time>2014-03-08T14:08:45Z</time>
      </trkpt>
      <trkpt lat="43.632990" lon="1.613511">
        <ele>184.0</ele>
        <time>2014-03-08T14:08:59Z</time>
      </trkpt>
      <trkpt lat="43.633004" lon="1.613661">
        <ele>185.3</ele>
        <time>2014-03-08T14:09:15Z</time>
      </trkpt>
      <trkpt lat="43.633010" lon="1.613811">
        <ele>186.9</ele>
        <time>2014-03-08T14:09:46Z</time>
      </trkpt>
      <trkpt lat="43.633042" lon="1.613998">
        <ele>188.8</ele>
        <time>2014-03-08T14:10:04Z</time>
      </trkpt>
      <trkpt lat="43.633067" lon="1.614163">
        <ele>190.2</ele>
        <time>2014-03-08T14:10:19Z</time>
      </trkpt>
      <trkpt lat="43.633080" lon="1.614345">
        <ele>192.4</ele>
        <time>2014-03-08T14:10:38Z</time>
      </trkpt>
      <trkpt lat="43.633111" lon="1.614511">
        <ele>195.1</ele>
        <time>2014-03-08T14:10:58Z</time>
      </trkpt>
      <trkpt lat="43.633126" lon="1.614697">
        <ele>197.6</ele>
        <time>2014-03-08T14:11:16Z</time>
      </trkpt>
      <trkpt lat="43.633131" lon="1.614880">
        <ele>199.7</ele>
        <time>2014-03-08T14:11:30Z</time>
      </trkpt>
      <trkpt lat="43.633142" lon="1.615022">
        <ele>202.1</ele>
        <time>2014-03-08T14:11:44Z</time>
      </trkpt>
      <trkpt lat="43.633156" lon="1.615165">
        <ele>204.2</ele>
        <time>2014-03-08T14:11:59Z</time>
      </trkpt>
      <trkpt lat="43.633161" lon="1.615310">
        <ele>205.9</ele>
        <time>2014-03-08T14:12:30Z</time>
      </trkpt>
      <trkpt lat="43.633178" lon="1.615455">
        <ele>206.9</ele>
        <time>2014-03-08T14:12:46Z</time>
      </trkpt>
      <trkpt lat="43.633179" lon="1.615606">
        <ele>207.7</ele>
        <time>2014-03-08T14:13:00Z</time>
      </trkpt>
      <trkpt lat="43.633194" lon="1.615744">
        <ele>209.0</ele>
        <time>2014-03-08T14:13:14Z</time>
      </trkpt>
      <trkpt lat="43.633255" lon="1.615867">
        <ele>210.9</ele>
        <time>2014-03-08T14:13:27Z</time>
      </trkpt>
      <trkpt lat="43.633300" lon="1.616041">
        <ele>212.6</ele>
        <time>2014-03-08T14:13:43Z</time>
      </trkpt>
      <trkpt lat="43.633336" lon="1.616180">
        <ele>213.9</ele>
        <time>2014-03-08T14:13:57Z</time>
      </trkpt>
      <trkpt lat="43.633390" lon="1.616313">
        <ele>215.0</ele>
        <time>2014-03-08T14:14:11Z</time>
        <name>Pigeonnier</name>
      </trkpt>
      <trkpt lat="43.633463" lon="1.616344">
        <ele>215.4</ele>
        <time>2014-03-08T14:14:24Z</time>
      </trkpt>
      <trkpt lat="43.633525" lon="1.616233">
        <ele>215.3</ele>
        <time>2014-03-08T14:14:35Z</time>
      </trkpt>
      <trkpt lat="43.633577" lon="1.616113">
        <ele>214.7</ele>
        <time>2014-03-08T14:14:46Z</time>
      </trkpt>
      <trkpt lat="43.633597" lon="1.616039">
        <ele>214.4</ele>
        <time>2014-03-08T14:15:13Z</time>
      </trkpt>
      <trkpt lat="43.633639" lon="1.615966">
        <ele>214.1</ele>
        <time>2014-03-08T14:15:53Z</time>
      </trkpt>
      <trkpt lat="43.633732" lon="1.616024">
        <ele>213.7</ele>
        <time>2014-03-08T14:16:17Z</time>
      </trkpt>
      <trkpt lat="43.633812" lon="1.616111">
        <ele>214.1</ele>
        <time>2014-03-08T14:16:32Z</time>
      </trkpt>
      <trkpt lat="43.633912" lon="1.616229">
        <ele>214.4</ele>
        <time>2014-03-08T14:16:45Z</time>
      </trkpt>
      <trkpt lat="43.634010" lon="1.616316">
        <ele>214.8</ele>
        <time>2014-03-08T14:17:00Z</time>
      </trkpt>
      <trkpt lat="43.634081" lon="1.616396">
        <ele>215.1</ele>
        <time>2014-03-08T14:17:18Z</time>
      </trkpt>
      <trkpt lat="43.634162" lon="1.616492">
        <ele>215.9</ele>
        <time>2014-03-08T14:17:33Z</time>
      </trkpt>
      <trkpt lat="43.634236" lon="1.616589">
        <ele>216.8</ele>
        <time>2014-03-08T14:17:46Z</time>
      </trkpt>
      <trkpt lat="43.634347" lon="1.616703">
        <ele>217.8</ele>
        <time>2014-03-08T14:17:59Z</time>
      </trkpt>
      <trkpt lat="43.634435" lon="1.616792">
        <ele>218.8</ele>
        <time>2014-03-08T14:18:13Z</time>
      </trkpt>
      <trkpt lat="43.634551" lon="1.616881">
        <ele>219.4</ele>
        <time>2014-03-08T14:18:28Z</time>
      </trkpt>
      <trkpt lat="43.634647" lon="1.616964">
        <ele>219.7</ele>
        <time>2014-03-08T14:18:38Z</time>
      </trkpt>
      <trkpt lat="43.634718" lon="1.617046">
        <ele>220.4</ele>
        <time>2014-03-08T14:18:48Z</time>
      </trkpt>
      <trkpt lat="43.634783" lon="1.617144">
        <ele>220.5</ele>
        <time>2014-03-08T14:18:58Z</time>
      </trkpt>
      <trkpt lat="43.634810" lon="1.617264">
        <ele>220.9</ele>
        <time>2014-03-08T14:19:09Z</time>
      </trkpt>
      <trkpt lat="43.634756" lon="1.617370">
        <ele>221.0</ele>
        <time>2014-03-08T14:19:19Z</time>
      </trkpt>
      <trkpt lat="43.634701" lon="1.617488">
        <ele>221.1</ele>
        <time>2014-03-08T14:19:31Z</time>
      </trkpt>
      <trkpt lat="43.634642" lon="1.617600">
        <ele>221.1</ele>
        <time>2014-03-08T14:19:42Z</time>
      </trkpt>
      <trkpt lat="43.634582" lon="1.617699">
        <ele>221.1</ele>
        <time>2014-03-08T14:19:54Z</time>
      </trkpt>
      <trkpt lat="43.634533" lon="1.617808">
        <ele>221.4</ele>
        <time>2014-03-08T14:20:04Z</time>
      </trkpt>
      <trkpt lat="43.634466" lon="1.617930">
        <ele>221.7</ele>
        <time>2014-03-08T14:20:15Z</time>
      </trkpt>
      <trkpt lat="43.634409" lon="1.618036">
        <ele>221.9</ele>
        <time>2014-03-08T14:20:26Z</time>
      </trkpt>
      <trkpt lat="43.634358" lon="1.618163">
        <ele>222.4</ele>
        <time>2014-03-08T14:20:38Z</time>
      </trkpt>
      <trkpt lat="43.634343" lon="1.618305">
        <ele>222.5</ele>
        <time>2014-03-08T14:20:49Z</time>
      </trkpt>
      <trkpt lat="43.634361" lon="1.618435">
        <ele>222.1</ele>
        <time>2014-03-08T14:21:01Z</time>
      </trkpt>
      <trkpt lat="43.634448" lon="1.618521">
        <ele>221.8</ele>
        <time>2014-03-08T14:21:17Z</time>
      </trkpt>
      <trkpt lat="43.634564" lon="1.618544">
        <ele>221.4</ele>
        <time>2014-03-08T14:21:29Z</time>
      </trkpt>
      <trkpt lat="43.634636" lon="1.618598">
        <ele>221.2</ele>
        <time>2014-03-08T14:21:46Z</time>
      </trkpt>
      <trkpt lat="43.634727" lon="1.618671">
        <ele>220.8</ele>
        <time>2014-03-08T14:21:57Z</time>
      </trkpt>
      <trkpt lat="43.634825" lon="1.618718">
        <ele>220.2</ele>
        <time>2014-03-08T14:22:07Z</time>
      </trkpt>
      <trkpt lat="43.634908" lon="1.618761">
        <ele>219.7</ele>
        <time>2014-03-08T14:22:17Z</time>
      </trkpt>
      <trkpt lat="43.634991" lon="1.618828">
        <ele>219.1</ele>
        <time>2014-03-08T14:22:27Z</time>
      </trkpt>
      <trkpt lat="43.635070" lon="1.618911">
        <ele>218.4</ele>
        <time>2014-03-08T14:22:39Z</time>
      </trkpt>
      <trkpt lat="43.635160" lon="1.619000">
        <ele>217.4</ele>
        <time>2014-03-08T14:22:51Z</time>
      </trkpt>
      <trkpt lat="43.635243" lon="1.619089">
        <ele>216.0</ele>
        <time>2014-03-08T14:23:04Z</time>
      </trkpt>
      <trkpt lat="43.635321" lon="1.619181">
        <ele>214.6</ele>
        <time>2014-03-08T14:23:15Z</time>
      </trkpt>
      <trkpt lat="43.635389" lon="1.619274">
        <ele>213.8</ele>
        <time>2014-03-08T14:23:26Z</time>
      </trkpt>
      <trkpt lat="43.635455" lon="1.619374">
        <ele>212.7</ele>
        <time>2014-03-08T14:23:38Z</time>
      </trkpt>
      <trkpt lat="43.635530" lon="1.619478">
        <ele>211.9</ele>
        <time>2014-03-08T14:23:48Z</time>
      </trkpt>
      <trkpt lat="43.635595" lon="1.619584">
        <ele>210.9</ele>
        <time>2014-03-08T14:24:00Z</time>
      </trkpt>
      <trkpt lat="43.635655" lon="1.619685">
        <ele>210.2</ele>
        <time>2014-03-08T14:24:11Z</time>
      </trkpt>
      <trkpt lat="43.635736" lon="1.619764">
        <ele>209.5</ele>
        <time>2014-03-08T14:24:21Z</time>
      </trkpt>
      <trkpt lat="43.635817" lon="1.619843">
        <ele>209.3</ele>
        <time>2014-03-08T14:24:30Z</time>
      </trkpt>
      <trkpt lat="43.635889" lon="1.619912">
        <ele>209.4</ele>
        <time>2014-03-08T14:24:39Z</time>
      </trkpt>
      <trkpt lat="43.635980" lon="1.619975">
        <ele>209.3</ele>
        <time>2014-03-08T14:24:49Z</time>
      </trkpt>
      <trkpt lat="43.636079" lon="1.620028">
        <ele>209.8</ele>
        <time>2014-03-08T14:25:01Z</time>
      </trkpt>
      <trkpt lat="43.636187" lon="1.620097">
        <ele>210.1</ele>
        <time>2014-03-08T14:25:13Z</time>
      </trkpt>
      <trkpt lat="43.636290" lon="1.620150">
        <ele>210.7</ele>
        <time>2014-03-08T14:25:24Z</time>
      </trkpt>
      <trkpt lat="43.636396" lon="1.620208">
        <ele>211.4</ele>
        <time>2014-03-08T14:25:35Z</time>
      </trkpt>
      <trkpt lat="43.636488" lon="1.620270">
        <ele>212.7</ele>
        <time>2014-03-08T14:25:48Z</time>
      </trkpt>
      <trkpt lat="43.636580" lon="1.620333">
        <ele>214.4</ele>
        <time>2014-03-08T14:26:03Z</time>
      </trkpt>
      <trkpt lat="43.636692" lon="1.620382">
        <ele>216.1</ele>
        <time>2014-03-08T14:26:17Z</time>
      </trkpt>
      <trkpt lat="43.636788" lon="1.620428">
        <ele>217.8</ele>
        <time>2014-03-08T14:26:30Z</time>
      </trkpt>
      <trkpt lat="43.636885" lon="1.620463">
        <ele>219.6</ele>
        <time>2014-03-08T14:26:45Z</time>
      </trkpt>
      <trkpt lat="43.636948" lon="1.620338">
        <ele>220.6</ele>
        <time>2014-03-08T14:27:25Z</time>
      </trkpt>
      <trkpt lat="43.637008" lon="1.620219">
        <ele>220.9</ele>
        <time>2014-03-08T14:27:36Z</time>
      </trkpt>
      <trkpt lat="43.637072" lon="1.620094">
        <ele>221.0</ele>
        <time>2014-03-08T14:27:47Z</time>
      </trkpt>
      <trkpt lat="43.637122" lon="1.619974">
        <ele>220.9</ele>
        <time>2014-03-08T14:27:56Z</time>
      </trkpt>
      <trkpt lat="43.637174" lon="1.619865">
        <ele>221.0</ele>
        <time>2014-03-08T14:28:05Z</time>
      </trkpt>
      <trkpt lat="43.637231" lon="1.619765">
        <ele>221.0</ele>
        <time>2014-03-08T14:28:14Z</time>
      </trkpt>
      <trkpt lat="43.637274" lon="1.619650">
        <ele>220.9</ele>
        <time>2014-03-08T14:28:23Z</time>
      </trkpt>
      <trkpt lat="43.637335" lon="1.619551">
        <ele>220.9</ele>
        <time>2014-03-08T14:28:32Z</time>
      </trkpt>
      <trkpt lat="43.637385" lon="1.619450">
        <ele>220.6</ele>
        <time>2014-03-08T14:28:41Z</time>
      </trkpt>
      <trkpt lat="43.637443" lon="1.619357">
        <ele>220.4</ele>
        <time>2014-03-08T14:28:50Z</time>
      </trkpt>
      <trkpt lat="43.637497" lon="1.619247">
        <ele>220.1</ele>
        <time>2014-03-08T14:28:59Z</time>
      </trkpt>
      <trkpt lat="43.637551" lon="1.619147">
        <ele>220.0</ele>
        <time>2014-03-08T14:29:08Z</time>
      </trkpt>
      <trkpt lat="43.637606" lon="1.619058">
        <ele>219.3</ele>
        <time>2014-03-08T14:29:17Z</time>
      </trkpt>
      <trkpt lat="43.637672" lon="1.618962">
        <ele>219.0</ele>
        <time>2014-03-08T14:29:26Z</time>
      </trkpt>
      <trkpt lat="43.637734" lon="1.618867">
        <ele>218.9</ele>
        <time>2014-03-08T14:29:35Z</time>
      </trkpt>
      <trkpt lat="43.637791" lon="1.618771">
        <ele>218.9</ele>
        <time>2014-03-08T14:29:44Z</time>
      </trkpt>
      <trkpt lat="43.637810" lon="1.618652">
        <ele>218.8</ele>
        <time>2014-03-08T14:29:53Z</time>
      </trkpt>
      <trkpt lat="43.637840" lon="1.618522">
        <ele>217.8</ele>
        <time>2014-03-08T14:30:04Z</time>
      </trkpt>
      <trkpt lat="43.637864" lon="1.618381">
        <ele>216.6</ele>
        <time>2014-03-08T14:30:16Z</time>
      </trkpt>
      <trkpt lat="43.637902" lon="1.618255">
        <ele>216.3</ele>
        <time>2014-03-08T14:30:27Z</time>
      </trkpt>
      <trkpt lat="43.637951" lon="1.618125">
        <ele>215.5</ele>
        <time>2014-03-08T14:30:39Z</time>
      </trkpt>
      <trkpt lat="43.637999" lon="1.617986">
        <ele>215.4</ele>
        <time>2014-03-08T14:30:49Z</time>
      </trkpt>
      <trkpt lat="43.638056" lon="1.617858">
        <ele>215.1</ele>
        <time>2014-03-08T14:30:59Z</time>
      </trkpt>
      <trkpt lat="43.638131" lon="1.617766">
        <ele>215.5</ele>
        <time>2014-03-08T14:31:09Z</time>
      </trkpt>
      <trkpt lat="43.638209" lon="1.617702">
        <ele>216.2</ele>
        <time>2014-03-08T14:31:20Z</time>
      </trkpt>
      <trkpt lat="43.638261" lon="1.617589">
        <ele>216.4</ele>
        <time>2014-03-08T14:31:30Z</time>
      </trkpt>
      <trkpt lat="43.638314" lon="1.617472">
        <ele>216.2</ele>
        <time>2014-03-08T14:31:42Z</time>
      </trkpt>
      <trkpt lat="43.638353" lon="1.617343">
        <ele>215.9</ele>
        <time>2014-03-08T14:31:54Z</time>
      </trkpt>
      <trkpt lat="43.638415" lon="1.617204">
        <ele>215.4</ele>
        <time>2014-03-08T14:32:06Z</time>
      </trkpt>
      <trkpt lat="43.638487" lon="1.617072">
        <ele>215.1</ele>
        <time>2014-03-08T14:32:19Z</time>
      </trkpt>
      <trkpt lat="43.638544" lon="1.616945">
        <ele>215.0</ele>
        <time>2014-03-08T14:32:33Z</time>
      </trkpt>
      <trkpt lat="43.638638" lon="1.616882">
        <ele>214.3</ele>
        <time>2014-03-08T14:32:49Z</time>
      </trkpt>
      <trkpt lat="43.638652" lon="1.616772">
        <ele>213.4</ele>
        <time>2014-03-08T14:33:02Z</time>
      </trkpt>
      <trkpt lat="43.638571" lon="1.616623">
        <ele>213.9</ele>
        <time>2014-03-08T14:33:17Z</time>
      </trkpt>
      <trkpt lat="43.638499" lon="1.616536">
        <ele>214.4</ele>
        <time>2014-03-08T14:44:26Z</time>
      </trkpt>
      <trkpt lat="43.638409" lon="1.616403">
        <ele>214.8</ele>
        <time>2014-03-08T14:44:48Z</time>
      </trkpt>
      <trkpt lat="43.638332" lon="1.616330">
        <ele>215.4</ele>
        <time>2014-03-08T14:45:08Z</time>
      </trkpt>
      <trkpt lat="43.638300" lon="1.616309">
        <ele>215.2</ele>
        <time>2014-03-08T14:45:35Z</time>
      </trkpt>
      <trkpt lat="43.638260" lon="1.616287">
        <ele>208.3</ele>
        <time>2014-03-08T14:46:10Z</time>
      </trkpt>
      <trkpt lat="43.638169" lon="1.616269">
        <ele>207.3</ele>
        <time>2014-03-08T14:46:26Z</time>
      </trkpt>
      <trkpt lat="43.638056" lon="1.616223">
        <ele>204.8</ele>
        <time>2014-03-08T14:46:46Z</time>
      </trkpt>
      <trkpt lat="43.637929" lon="1.616226">
        <ele>201.9</ele>
        <time>2014-03-08T14:47:02Z</time>
      </trkpt>
      <trkpt lat="43.637850" lon="1.616218">
        <ele>198.5</ele>
        <time>2014-03-08T14:47:23Z</time>
      </trkpt>
      <trkpt lat="43.637736" lon="1.616115">
        <ele>195.4</ele>
        <time>2014-03-08T14:47:39Z</time>
      </trkpt>
      <trkpt lat="43.637737" lon="1.616017">
        <ele>194.9</ele>
        <time>2014-03-08T14:48:17Z</time>
      </trkpt>
      <trkpt lat="43.637796" lon="1.615898">
        <ele>194.5</ele>
        <time>2014-03-08T14:48:35Z</time>
      </trkpt>
      <trkpt lat="43.637833" lon="1.615762">
        <ele>193.8</ele>
        <time>2014-03-08T14:48:56Z</time>
        <name>Lac de la Tuilerie</name>
      </trkpt>
      <trkpt lat="43.637857" lon="1.615596">
        <ele>193.9</ele>
        <time>2014-03-08T14:49:15Z</time>
      </trkpt>
      <trkpt lat="43.637884" lon="1.615401">
        <ele>192.4</ele>
        <time>2014-03-08T14:54:01Z</time>
      </trkpt>
      <trkpt lat="43.637936" lon="1.615300">
        <ele>193.4</ele>
        <time>2014-03-08T14:54:27Z</time>
      </trkpt>
      <trkpt lat="43.638013" lon="1.615160">
        <ele>194.7</ele>
        <time>2014-03-08T14:54:46Z</time>
      </trkpt>
      <trkpt lat="43.638108" lon="1.615063">
        <ele>194.1</ele>
        <time>2014-03-08T14:55:08Z</time>
      </trkpt>
      <trkpt lat="43.638188" lon="1.614946">
        <ele>193.4</ele>
        <time>2014-03-08T14:55:22Z</time>
      </trkpt>
      <trkpt lat="43.638241" lon="1.614809">
        <ele>193.2</ele>
        <time>2014-03-08T14:55:37Z</time>
      </trkpt>
      <trkpt lat="43.638305" lon="1.614814">
        <ele>192.9</ele>
        <time>2014-03-08T14:56:08Z</time>
      </trkpt>
      <trkpt lat="43.638307" lon="1.614796">
        <ele>193.1</ele>
        <time>2014-03-08T14:56:48Z</time>
      </trkpt>
      <trkpt lat="43.638349" lon="1.614687">
        <ele>193.0</ele>
        <time>2014-03-08T14:57:08Z</time>
      </trkpt>
      <trkpt lat="43.638416" lon="1.614557">
        <ele>193.6</ele>
        <time>2014-03-08T14:57:25Z</time>
      </trkpt>
      <trkpt lat="43.638518" lon="1.614556">
        <ele>193.8</ele>
        <time>2014-03-08T14:57:46Z</time>
      </trkpt>
      <trkpt lat="43.638605" lon="1.614517">
        <ele>190.8</ele>
        <time>2014-03-08T14:58:09Z</time>
      </trkpt>
      <trkpt lat="43.638679" lon="1.614417">
        <ele>189.9</ele>
        <time>2014-03-08T14:58:24Z</time>
      </trkpt>
      <trkpt lat="43.638773" lon="1.614332">
        <ele>189.4</ele>
        <time>2014-03-08T14:58:42Z</time>
      </trkpt>
      <trkpt lat="43.638846" lon="1.614264">
        <ele>189.1</ele>
        <time>2014-03-08T14:58:56Z</time>
      </trkpt>
      <trkpt lat="43.638886" lon="1.614227">
        <ele>188.5</ele>
        <time>2014-03-08T14:59:27Z</time>
      </trkpt>
      <trkpt lat="43.638922" lon="1.614229">
        <ele>188.4</ele>
        <time>2014-03-08T15:00:01Z</time>
      </trkpt>
      <trkpt lat="43.638971" lon="1.614098">
        <ele>188.2</ele>
        <time>2014-03-08T15:00:23Z</time>
      </trkpt>
      <trkpt lat="43.639019" lon="1.614003">
        <ele>188.0</ele>
        <time>2014-03-08T15:00:41Z</time>
      </trkpt>
      <trkpt lat="43.639096" lon="1.613893">
        <ele>187.6</ele>
        <time>2014-03-08T15:00:59Z</time>
      </trkpt>
      <trkpt lat="43.639168" lon="1.613782">
        <ele>187.2</ele>
        <time>2014-03-08T15:01:13Z</time>
      </trkpt>
      <trkpt lat="43.639244" lon="1.613680">
        <ele>187.0</ele>
        <time>2014-03-08T15:01:26Z</time>
      </trkpt>
      <trkpt lat="43.639296" lon="1.613623">
        <ele>187.4</ele>
        <time>2014-03-08T15:01:59Z</time>
      </trkpt>
      <trkpt lat="43.639361" lon="1.613690">
        <ele>187.1</ele>
        <time>2014-03-08T15:02:20Z</time>
      </trkpt>
      <trkpt lat="43.639413" lon="1.613807">
        <ele>187.6</ele>
        <time>2014-03-08T15:02:34Z</time>
      </trkpt>
      <trkpt lat="43.639468" lon="1.613912">
        <ele>188.0</ele>
        <time>2014-03-08T15:02:44Z</time>
      </trkpt>
      <trkpt lat="43.639524" lon="1.614009">
        <ele>188.7</ele>
        <time>2014-03-08T15:02:54Z</time>
      </trkpt>
      <trkpt lat="43.639600" lon="1.614102">
        <ele>188.9</ele>
        <time>2014-03-08T15:03:05Z</time>
      </trkpt>
      <trkpt lat="43.639661" lon="1.614219">
        <ele>189.3</ele>
        <time>2014-03-08T15:03:16Z</time>
      </trkpt>
      <trkpt lat="43.639735" lon="1.614290">
        <ele>189.3</ele>
        <time>2014-03-08T15:03:32Z</time>
      </trkpt>
      <trkpt lat="43.639817" lon="1.614352">
        <ele>189.9</ele>
        <time>2014-03-08T15:03:43Z</time>
      </trkpt>
      <trkpt lat="43.639881" lon="1.614439">
        <ele>190.4</ele>
        <time>2014-03-08T15:03:57Z</time>
      </trkpt>
      <trkpt lat="43.639940" lon="1.614528">
        <ele>190.7</ele>
        <time>2014-03-08T15:04:10Z</time>
      </trkpt>
      <trkpt lat="43.640025" lon="1.614658">
        <ele>191.1</ele>
        <time>2014-03-08T15:04:22Z</time>
      </trkpt>
      <trkpt lat="43.640018" lon="1.614777">
        <ele>191.9</ele>
        <time>2014-03-08T15:04:33Z</time>
      </trkpt>
      <trkpt lat="43.640056" lon="1.614907">
        <ele>192.3</ele>
        <time>2014-03-08T15:04:45Z</time>
      </trkpt>
      <trkpt lat="43.640081" lon="1.615012">
        <ele>192.8</ele>
        <time>2014-03-08T15:04:55Z</time>
      </trkpt>
      <trkpt lat="43.640109" lon="1.615135">
        <ele>193.4</ele>
        <time>2014-03-08T15:05:05Z</time>
      </trkpt>
      <trkpt lat="43.640141" lon="1.615270">
        <ele>194.1</ele>
        <time>2014-03-08T15:05:15Z</time>
      </trkpt>
      <trkpt lat="43.640181" lon="1.615388">
        <ele>194.6</ele>
        <time>2014-03-08T15:05:25Z</time>
      </trkpt>
      <trkpt lat="43.640272" lon="1.615415">
        <ele>194.9</ele>
        <time>2014-03-08T15:05:36Z</time>
      </trkpt>
      <trkpt lat="43.640368" lon="1.615456">
        <ele>195.6</ele>
        <time>2014-03-08T15:05:48Z</time>
      </trkpt>
      <trkpt lat="43.640455" lon="1.615485">
        <ele>197.0</ele>
        <time>2014-03-08T15:06:03Z</time>
      </trkpt>
      <trkpt lat="43.640552" lon="1.615491">
        <ele>198.2</ele>
        <time>2014-03-08T15:06:17Z</time>
      </trkpt>
      <trkpt lat="43.640651" lon="1.615488">
        <ele>199.4</ele>
        <time>2014-03-08T15:06:30Z</time>
      </trkpt>
      <trkpt lat="43.640747" lon="1.615469">
        <ele>200.9</ele>
        <time>2014-03-08T15:06:43Z</time>
      </trkpt>
      <trkpt lat="43.640847" lon="1.615472">
        <ele>202.4</ele>
        <time>2014-03-08T15:06:56Z</time>
      </trkpt>
      <trkpt lat="43.640962" lon="1.615481">
        <ele>203.8</ele>
        <time>2014-03-08T15:07:08Z</time>
      </trkpt>
      <trkpt lat="43.641059" lon="1.615480">
        <ele>204.8</ele>
        <time>2014-03-08T15:07:19Z</time>
      </trkpt>
      <trkpt lat="43.641147" lon="1.615454">
        <ele>206.0</ele>
        <time>2014-03-08T15:07:30Z</time>
      </trkpt>
      <trkpt lat="43.641241" lon="1.615469">
        <ele>207.2</ele>
        <time>2014-03-08T15:07:43Z</time>
        <name>Fontaine</name>
      </trkpt>
      <trkpt lat="43.641253" lon="1.615489">
        <ele>207.7</ele>
        <time>2014-03-08T15:08:06Z</time>
      </trkpt>
      <trkpt lat="43.641244" lon="1.615504">
        <ele>207.5</ele>
        <time>2014-03-08T15:09:09Z</time>
      </trkpt>
      <trkpt lat="43.641182" lon="1.615467">
        <ele>207.4</ele>
        <time>2014-03-08T15:09:35Z</time>
      </trkpt>
      <trkpt lat="43.641092" lon="1.615471">
        <ele>207.1</ele>
        <time>2014-03-08T15:09:48Z</time>
      </trkpt>
      <trkpt lat="43.641022" lon="1.615479">
        <ele>205.7</ele>
        <time>2014-03-08T15:10:23Z</time>
      </trkpt>
      <trkpt lat="43.640920" lon="1.615498">
        <ele>204.1</ele>
        <time>2014-03-08T15:10:44Z</time>
      </trkpt>
      <trkpt lat="43.640808" lon="1.615501">
        <ele>203.1</ele>
        <time>2014-03-08T15:10:55Z</time>
      </trkpt>
      <trkpt lat="43.640711" lon="1.615500">
        <ele>201.9</ele>
        <time>2014-03-08T15:11:06Z</time>
      </trkpt>
      <trkpt lat="43.640611" lon="1.615507">
        <ele>200.6</ele>
        <time>2014-03-08T15:11:18Z</time>
      </trkpt>
      <trkpt lat="43.640508" lon="1.615512">
        <ele>199.4</ele>
        <time>2014-03-08T15:11:29Z</time>
      </trkpt>
      <trkpt lat="43.640420" lon="1.615496">
        <ele>198.0</ele>
        <time>2014-03-08T15:11:40Z</time>
      </trkpt>
      <trkpt lat="43.640318" lon="1.615460">
        <ele>196.7</ele>
        <time>2014-03-08T15:11:53Z</time>
      </trkpt>
      <trkpt lat="43.640209" lon="1.615401">
        <ele>195.4</ele>
        <time>2014-03-08T15:12:05Z</time>
      </trkpt>
      <trkpt lat="43.640120" lon="1.615343">
        <ele>194.3</ele>
        <time>2014-03-08T15:12:16Z</time>
      </trkpt>
      <trkpt lat="43.640093" lon="1.615201">
        <ele>193.9</ele>
        <time>2014-03-08T15:12:27Z</time>
      </trkpt>
      <trkpt lat="43.640073" lon="1.615064">
        <ele>193.6</ele>
        <time>2014-03-08T15:12:39Z</time>
      </trkpt>
      <trkpt lat="43.640043" lon="1.614894">
        <ele>193.2</ele>
        <time>2014-03-08T15:12:53Z</time>
      </trkpt>
      <trkpt lat="43.640008" lon="1.614774">
        <ele>192.5</ele>
        <time>2014-03-08T15:13:05Z</time>
      </trkpt>
      <trkpt lat="43.640014" lon="1.614630">
        <ele>191.7</ele>
        <time>2014-03-08T15:13:17Z</time>
      </trkpt>
      <trkpt lat="43.639937" lon="1.614498">
        <ele>191.4</ele>
        <time>2014-03-08T15:13:30Z</time>
      </trkpt>
      <trkpt lat="43.639856" lon="1.614393">
        <ele>191.1</ele>
        <time>2014-03-08T15:13:42Z</time>
      </trkpt>
      <trkpt lat="43.639777" lon="1.614284">
        <ele>191.0</ele>
        <time>2014-03-08T15:13:57Z</time>
      </trkpt>
      <trkpt lat="43.639707" lon="1.614183">
        <ele>190.8</ele>
        <time>2014-03-08T15:14:10Z</time>
      </trkpt>
      <trkpt lat="43.639655" lon="1.614075">
        <ele>190.4</ele>
        <time>2014-03-08T15:14:21Z</time>
      </trkpt>
      <trkpt lat="43.639577" lon="1.613991">
        <ele>190.2</ele>
        <time>2014-03-08T15:14:33Z</time>
      </trkpt>
      <trkpt lat="43.639494" lon="1.613979">
        <ele>190.1</ele>
        <time>2014-03-08T15:14:44Z</time>
      </trkpt>
      <trkpt lat="43.639427" lon="1.613884">
        <ele>189.4</ele>
        <time>2014-03-08T15:14:56Z</time>
      </trkpt>
      <trkpt lat="43.639373" lon="1.613773">
        <ele>188.7</ele>
        <time>2014-03-08T15:15:09Z</time>
      </trkpt>
      <trkpt lat="43.639317" lon="1.613641">
        <ele>188.4</ele>
        <time>2014-03-08T15:15:22Z</time>
      </trkpt>
      <trkpt lat="43.639277" lon="1.613577">
        <ele>188.4</ele>
        <time>2014-03-08T15:16:03Z</time>
      </trkpt>
      <trkpt lat="43.639287" lon="1.613436">
        <ele>188.6</ele>
        <time>2014-03-08T15:16:21Z</time>
      </trkpt>
      <trkpt lat="43.639293" lon="1.613278">
        <ele>188.7</ele>
        <time>2014-03-08T15:16:37Z</time>
      </trkpt>
      <trkpt lat="43.639311" lon="1.613094">
        <ele>188.4</ele>
        <time>2014-03-08T15:16:52Z</time>
      </trkpt>
      <trkpt lat="43.639295" lon="1.612910">
        <ele>188.6</ele>
        <time>2014-03-08T15:17:08Z</time>
      </trkpt>
      <trkpt lat="43.639290" lon="1.612757">
        <ele>187.8</ele>
        <time>2014-03-08T15:17:29Z</time>
      </trkpt>
      <trkpt lat="43.639269" lon="1.612632">
        <ele>186.4</ele>
        <time>2014-03-08T15:17:47Z</time>
      </trkpt>
      <trkpt lat="43.639265" lon="1.612477">
        <ele>186.7</ele>
        <time>2014-03-08T15:18:06Z</time>
      </trkpt>
      <trkpt lat="43.639294" lon="1.612307">
        <ele>186.7</ele>
        <time>2014-03-08T15:18:24Z</time>
      </trkpt>
      <trkpt lat="43.639302" lon="1.612115">
        <ele>186.7</ele>
        <time>2014-03-08T15:18:41Z</time>
      </trkpt>
      <trkpt lat="43.639305" lon="1.611957">
        <ele>186.8</ele>
        <time>2014-03-08T15:18:57Z</time>
      </trkpt>
      <trkpt lat="43.639296" lon="1.611832">
        <ele>186.5</ele>
        <time>2014-03-08T15:19:11Z</time>
      </trkpt>
      <trkpt lat="43.639284" lon="1.611639">
        <ele>186.2</ele>
        <time>2014-03-08T15:19:30Z</time>
      </trkpt>
      <trkpt lat="43.639235" lon="1.611517">
        <ele>186.0</ele>
        <time>2014-03-08T15:19:48Z</time>
      </trkpt>
      <trkpt lat="43.639226" lon="1.611377">
        <ele>185.3</ele>
        <time>2014-03-08T15:20:23Z</time>
      </trkpt>
      <trkpt lat="43.639137" lon="1.611283">
        <ele>184.9</ele>
        <time>2014-03-08T15:20:41Z</time>
      </trkpt>
      <trkpt lat="43.639004" lon="1.611315">
        <ele>184.9</ele>
        <time>2014-03-08T15:20:54Z</time>
      </trkpt>
      <trkpt lat="43.638883" lon="1.611338">
        <ele>184.6</ele>
        <time>2014-03-08T15:21:05Z</time>
      </trkpt>
      <trkpt lat="43.638790" lon="1.611357">
        <ele>184.5</ele>
        <time>2014-03-08T15:21:18Z</time>
      </trkpt>
      <trkpt lat="43.638682" lon="1.611335">
        <ele>184.1</ele>
        <time>2014-03-08T15:21:33Z</time>
      </trkpt>
      <trkpt lat="43.638577" lon="1.611313">
        <ele>183.8</ele>
        <time>2014-03-08T15:21:45Z</time>
      </trkpt>
      <trkpt lat="43.638469" lon="1.611302">
        <ele>183.7</ele>
        <time>2014-03-08T15:21:57Z</time>
      </trkpt>
      <trkpt lat="43.638359" lon="1.611295">
        <ele>183.3</ele>
        <time>2014-03-08T15:22:11Z</time>
      </trkpt>
      <trkpt lat="43.638255" lon="1.611312">
        <ele>183.3</ele>
        <time>2014-03-08T15:22:22Z</time>
      </trkpt>
      <trkpt lat="43.638156" lon="1.611293">
        <ele>183.0</ele>
        <time>2014-03-08T15:22:33Z</time>
      </trkpt>
      <trkpt lat="43.638065" lon="1.611270">
        <ele>182.3</ele>
        <time>2014-03-08T15:22:45Z</time>
      </trkpt>
      <trkpt lat="43.637961" lon="1.611259">
        <ele>182.2</ele>
        <time>2014-03-08T15:22:57Z</time>
      </trkpt>
      <trkpt lat="43.637863" lon="1.611279">
        <ele>181.9</ele>
        <time>2014-03-08T15:23:08Z</time>
      </trkpt>
      <trkpt lat="43.637772" lon="1.611317">
        <ele>181.6</ele>
        <time>2014-03-08T15:23:19Z</time>
      </trkpt>
      <trkpt lat="43.637680" lon="1.611339">
        <ele>181.3</ele>
        <time>2014-03-08T15:23:29Z</time>
      </trkpt>
      <trkpt lat="43.637588" lon="1.611376">
        <ele>181.0</ele>
        <time>2014-03-08T15:23:40Z</time>
      </trkpt>
      <trkpt lat="43.637493" lon="1.611410">
        <ele>180.9</ele>
        <time>2014-03-08T15:23:52Z</time>
      </trkpt>
      <trkpt lat="43.637394" lon="1.611442">
        <ele>180.7</ele>
        <time>2014-03-08T15:24:04Z</time>
      </trkpt>
      <trkpt lat="43.637304" lon="1.611478">
        <ele>180.6</ele>
        <time>2014-03-08T15:24:15Z</time>
      </trkpt>
      <trkpt lat="43.637222" lon="1.611517">
        <ele>180.8</ele>
        <time>2014-03-08T15:24:25Z</time>
      </trkpt>
      <trkpt lat="43.637123" lon="1.611557">
        <ele>180.7</ele>
        <time>2014-03-08T15:24:36Z</time>
      </trkpt>
      <trkpt lat="43.637026" lon="1.611552">
        <ele>180.7</ele>
        <time>2014-03-08T15:24:46Z</time>
      </trkpt>
      <trkpt lat="43.636923" lon="1.611499">
        <ele>180.2</ele>
        <time>2014-03-08T15:24:58Z</time>
      </trkpt>
      <trkpt lat="43.636824" lon="1.611502">
        <ele>179.6</ele>
        <time>2014-03-08T15:25:08Z</time>
      </trkpt>
      <trkpt lat="43.636739" lon="1.611556">
        <ele>179.2</ele>
        <time>2014-03-08T15:25:19Z</time>
      </trkpt>
      <trkpt lat="43.636648" lon="1.611590">
        <ele>179.4</ele>
        <time>2014-03-08T15:25:31Z</time>
      </trkpt>
      <trkpt lat="43.636566" lon="1.611648">
        <ele>179.6</ele>
        <time>2014-03-08T15:25:41Z</time>
      </trkpt>
      <trkpt lat="43.636475" lon="1.611719">
        <ele>179.6</ele>
        <time>2014-03-08T15:25:53Z</time>
      </trkpt>
      <trkpt lat="43.636373" lon="1.611785">
        <ele>179.8</ele>
        <time>2014-03-08T15:26:04Z</time>
      </trkpt>
      <trkpt lat="43.636266" lon="1.611850">
        <ele>179.4</ele>
        <time>2014-03-08T15:26:17Z</time>
      </trkpt>
      <trkpt lat="43.636171" lon="1.611840">
        <ele>179.0</ele>
        <time>2014-03-08T15:26:30Z</time>
      </trkpt>
      <trkpt lat="43.636131" lon="1.611836">
        <ele>176.9</ele>
        <time>2014-03-08T15:27:48Z</time>
        <name>Vieux pont</name>
      </trkpt>
      <trkpt lat="43.636159" lon="1.611729">
        <ele>176.4</ele>
        <time>2014-03-08T15:28:16Z</time>
      </trkpt>
      <trkpt lat="43.636173" lon="1.611538">
        <ele>177.2</ele>
        <time>2014-03-08T15:28:36Z</time>
      </trkpt>
      <trkpt lat="43.636192" lon="1.611384">
        <ele>178.3</ele>
        <time>2014-03-08T15:28:54Z</time>
      </trkpt>
      <trkpt lat="43.636199" lon="1.611282">
        <ele>178.8</ele>
        <time>2014-03-08T15:29:15Z</time>
      </trkpt>
      <trkpt lat="43.636209" lon="1.611138">
        <ele>179.8</ele>
        <time>2014-03-08T15:29:35Z</time>
      </trkpt>
      <trkpt lat="43.636208" lon="1.610951">
        <ele>181.7</ele>
        <time>2014-03-08T15:29:55Z</time>
      </trkpt>
      <trkpt lat="43.636218" lon="1.610756">
        <ele>183.3</ele>
        <time>2014-03-08T15:30:12Z</time>
      </trkpt>
      <trkpt lat="43.636235" lon="1.610562">
        <ele>184.3</ele>
        <time>2014-03-08T15:30:27Z</time>
      </trkpt>
      <trkpt lat="43.636224" lon="1.610370">
        <ele>185.5</ele>
        <time>2014-03-08T15:30:45Z</time>
      </trkpt>
      <trkpt lat="43.636220" lon="1.610190">
        <ele>187.0</ele>
        <time>2014-03-08T15:31:03Z</time>
      </trkpt>
      <trkpt lat="43.636194" lon="1.610034">
        <ele>188.4</ele>
        <time>2014-03-08T15:31:22Z</time>
      </trkpt>
      <trkpt lat="43.636155" lon="1.609886">
        <ele>189.8</ele>
        <time>2014-03-08T15:31:40Z</time>
      </trkpt>
      <trkpt lat="43.636201" lon="1.609725">
        <ele>191.3</ele>
        <time>2014-03-08T15:31:59Z</time>
      </trkpt>
      <trkpt lat="43.636228" lon="1.609550">
        <ele>193.8</ele>
        <time>2014-03-08T15:32:19Z</time>
      </trkpt>
      <trkpt lat="43.636298" lon="1.609386">
        <ele>195.7</ele>
        <time>2014-03-08T15:32:37Z</time>
      </trkpt>
      <trkpt lat="43.636329" lon="1.609195">
        <ele>197.6</ele>
        <time>2014-03-08T15:32:56Z</time>
      </trkpt>
      <trkpt lat="43.636386" lon="1.609059">
        <ele>199.4</ele>
        <time>2014-03-08T15:33:16Z</time>
      </trkpt>
      <trkpt lat="43.636451" lon="1.608924">
        <ele>201.4</ele>
        <time>2014-03-08T15:33:36Z</time>
      </trkpt>
      <trkpt lat="43.636494" lon="1.608803">
        <ele>203.1</ele>
        <time>2014-03-08T15:33:59Z</time>
      </trkpt>
      <trkpt lat="43.636509" lon="1.608695">
        <ele>204.9</ele>
        <time>2014-03-08T15:34:41Z</time>
      </trkpt>
      <trkpt lat="43.636566" lon="1.608570">
        <ele>205.2</ele>
        <time>2014-03-08T15:34:54Z</time>
      </trkpt>
      <trkpt lat="43.636605" lon="1.608499">
        <ele>205.9</ele>
        <time>2014-03-08T15:36:08Z</time>
      </trkpt>
      <trkpt lat="43.636663" lon="1.608376">
        <ele>207.4</ele>
        <time>2014-03-08T15:36:24Z</time>
      </trkpt>
      <trkpt lat="43.636717" lon="1.608241">
        <ele>209.1</ele>
        <time>2014-03-08T15:36:41Z</time>
      </trkpt>
      <trkpt lat="43.636774" lon="1.608075">
        <ele>210.9</ele>
        <time>2014-03-08T15:36:57Z</time>
      </trkpt>
      <trkpt lat="43.636826" lon="1.607887">
        <ele>212.6</ele>
        <time>2014-03-08T15:37:14Z</time>
      </trkpt>
      <trkpt lat="43.636874" lon="1.607727">
        <ele>213.6</ele>
        <time>2014-03-08T15:37:29Z</time>
      </trkpt>
      <trkpt lat="43.636924" lon="1.607577">
        <ele>214.8</ele>
        <time>2014-03-08T15:37:45Z</time>
      </trkpt>
      <trkpt lat="43.636974" lon="1.607439">
        <ele>216.2</ele>
        <time>2014-03-08T15:37:59Z</time>
      </trkpt>
      <trkpt lat="43.637021" lon="1.607291">
        <ele>217.3</ele>
        <time>2014-03-08T15:38:16Z</time>
      </trkpt>
      <trkpt lat="43.637085" lon="1.607143">
        <ele>219.0</ele>
        <time>2014-03-08T15:38:32Z</time>
      </trkpt>
      <trkpt lat="43.637136" lon="1.606981">
        <ele>220.8</ele>
        <time>2014-03-08T15:38:45Z</time>
      </trkpt>
      <trkpt lat="43.637181" lon="1.606844">
        <ele>222.1</ele>
        <time>2014-03-08T15:38:59Z</time>
      </trkpt>
      <trkpt lat="43.637229" lon="1.606693">
        <ele>223.6</ele>
        <time>2014-03-08T15:39:12Z</time>
      </trkpt>
      <trkpt lat="43.637275" lon="1.606574">
        <ele>224.2</ele>
        <time>2014-03-08T15:39:26Z</time>
      </trkpt>
      <trkpt lat="43.637316" lon="1.606442">
        <ele>225.8</ele>
        <time>2014-03-08T15:39:40Z</time>
      </trkpt>
      <trkpt lat="43.637374" lon="1.606308">
        <ele>227.2</ele>
        <time>2014-03-08T15:39:54Z</time>
      </trkpt>
      <trkpt lat="43.637404" lon="1.606159">
        <ele>228.0</ele>
        <time>2014-03-08T15:40:07Z</time>
      </trkpt>
      <trkpt lat="43.637428" lon="1.605990">
        <ele>228.3</ele>
        <time>2014-03-08T15:40:21Z</time>
      </trkpt>
      <trkpt lat="43.637443" lon="1.605889">
        <ele>228.8</ele>
        <time>2014-03-08T15:40:49Z</time>
      </trkpt>
      <trkpt lat="43.637455" lon="1.605765">
        <ele>228.9</ele>
        <time>2014-03-08T15:40:59Z</time>
      </trkpt>
      <trkpt lat="43.637452" lon="1.605636">
        <ele>228.6</ele>
        <time>2014-03-08T15:41:10Z</time>
      </trkpt>
      <trkpt lat="43.637472" lon="1.605466">
        <ele>227.8</ele>
        <time>2014-03-08T15:41:23Z</time>
      </trkpt>
      <trkpt lat="43.637474" lon="1.605287">
        <ele>227.1</ele>
        <time>2014-03-08T15:41:35Z</time>
      </trkpt>
      <trkpt lat="43.637481" lon="1.605144">
        <ele>226.2</ele>
        <time>2014-03-08T15:41:45Z</time>
      </trkpt>
      <trkpt lat="43.637521" lon="1.605018">
        <ele>225.7</ele>
        <time>2014-03-08T15:41:56Z</time>
      </trkpt>
      <trkpt lat="43.637603" lon="1.604937">
        <ele>225.8</ele>
        <time>2014-03-08T15:42:07Z</time>
      </trkpt>
      <trkpt lat="43.637687" lon="1.604847">
        <ele>225.5</ele>
        <time>2014-03-08T15:42:19Z</time>
      </trkpt>
      <trkpt lat="43.637764" lon="1.604764">
        <ele>225.6</ele>
        <time>2014-03-08T15:42:31Z</time>
      </trkpt>
      <trkpt lat="43.637834" lon="1.604657">
        <ele>225.5</ele>
        <time>2014-03-08T15:42:45Z</time>
      </trkpt>
      <trkpt lat="43.637930" lon="1.604537">
        <ele>225.3</ele>
        <time>2014-03-08T15:43:01Z</time>
      </trkpt>
      <trkpt lat="43.638017" lon="1.604423">
        <ele>225.3</ele>
        <time>2014-03-08T15:43:16Z</time>
      </trkpt>
      <trkpt lat="43.638106" lon="1.604300">
        <ele>225.6</ele>
        <time>2014-03-08T15:43:32Z</time>
      </trkpt>
      <trkpt lat="43.638214" lon="1.604197">
        <ele>225.7</ele>
        <time>2014-03-08T15:43:45Z</time>
      </trkpt>
      <trkpt lat="43.638297" lon="1.604079">
        <ele>225.9</ele>
        <time>2014-03-08T15:43:58Z</time>
      </trkpt>
      <trkpt lat="43.638384" lon="1.603968">
        <ele>225.9</ele>
        <time>2014-03-08T15:44:11Z</time>
      </trkpt>
      <trkpt lat="43.638463" lon="1.603854">
        <ele>226.1</ele>
        <time>2014-03-08T15:44:25Z</time>
      </trkpt>
      <trkpt lat="43.638524" lon="1.603757">
        <ele>226.4</ele>
        <time>2014-03-08T15:44:37Z</time>
      </trkpt>
      <trkpt lat="43.638604" lon="1.603654">
        <ele>226.5</ele>
        <time>2014-03-08T15:44:49Z</time>
      </trkpt>
      <trkpt lat="43.638678" lon="1.603540">
        <ele>226.7</ele>
        <time>2014-03-08T15:45:01Z</time>
      </trkpt>
      <trkpt lat="43.638761" lon="1.603456">
        <ele>227.1</ele>
        <time>2014-03-08T15:45:11Z</time>
      </trkpt>
      <trkpt lat="43.638814" lon="1.603362">
        <ele>227.5</ele>
        <time>2014-03-08T15:45:21Z</time>
      </trkpt>
      <trkpt lat="43.638865" lon="1.603264">
        <ele>227.4</ele>
        <time>2014-03-08T15:45:32Z</time>
      </trkpt>
      <trkpt lat="43.638905" lon="1.603148">
        <ele>227.3</ele>
        <time>2014-03-08T15:45:43Z</time>
      </trkpt>
      <trkpt lat="43.638942" lon="1.603025">
        <ele>226.9</ele>
        <time>2014-03-08T15:45:53Z</time>
      </trkpt>
      <trkpt lat="43.638968" lon="1.602890">
        <ele>226.7</ele>
        <time>2014-03-08T15:46:03Z</time>
      </trkpt>
      <trkpt lat="43.638958" lon="1.602764">
        <ele>226.7</ele>
        <time>2014-03-08T15:46:13Z</time>
      </trkpt>
      <trkpt lat="43.638950" lon="1.602646">
        <ele>226.4</ele>
        <time>2014-03-08T15:46:22Z</time>
      </trkpt>
      <trkpt lat="43.638916" lon="1.602522">
        <ele>226.1</ele>
        <time>2014-03-08T15:46:32Z</time>
      </trkpt>
      <trkpt lat="43.638903" lon="1.602385">
        <ele>225.9</ele>
        <time>2014-03-08T15:46:43Z</time>
      </trkpt>
      <trkpt lat="43.638877" lon="1.602242">
        <ele>225.8</ele>
        <time>2014-03-08T15:46:54Z</time>
      </trkpt>
      <trkpt lat="43.638855" lon="1.602097">
        <ele>225.9</ele>
        <time>2014-03-08T15:47:06Z</time>
      </trkpt>
      <trkpt lat="43.638812" lon="1.601966">
        <ele>226.0</ele>
        <time>2014-03-08T15:47:18Z</time>
      </trkpt>
      <trkpt lat="43.638751" lon="1.601815">
        <ele>225.9</ele>
        <time>2014-03-08T15:47:30Z</time>
      </trkpt>
      <trkpt lat="43.638700" lon="1.601681">
        <ele>225.9</ele>
        <time>2014-03-08T15:47:41Z</time>
      </trkpt>
      <trkpt lat="43.638645" lon="1.601556">
        <ele>225.3</ele>
        <time>2014-03-08T15:47:52Z</time>
      </trkpt>
      <trkpt lat="43.638596" lon="1.601451">
        <ele>225.3</ele>
        <time>2014-03-08T15:48:03Z</time>
      </trkpt>
      <trkpt lat="43.638535" lon="1.601321">
        <ele>225.3</ele>
        <time>2014-03-08T15:48:16Z</time>
      </trkpt>
      <trkpt lat="43.638471" lon="1.601202">
        <ele>224.9</ele>
        <time>2014-03-08T15:48:27Z</time>
      </trkpt>
      <trkpt lat="43.638415" lon="1.601069">
        <ele>224.6</ele>
        <time>2014-03-08T15:48:38Z</time>
      </trkpt>
      <trkpt lat="43.638377" lon="1.600951">
        <ele>224.2</ele>
        <time>2014-03-08T15:48:48Z</time>
      </trkpt>
      <trkpt lat="43.638364" lon="1.600824">
        <ele>224.2</ele>
        <time>2014-03-08T15:48:58Z</time>
      </trkpt>
      <trkpt lat="43.638385" lon="1.600690">
        <ele>224.2</ele>
        <time>2014-03-08T15:49:10Z</time>
      </trkpt>
      <trkpt lat="43.638400" lon="1.600553">
        <ele>223.9</ele>
        <time>2014-03-08T15:49:21Z</time>
      </trkpt>
      <trkpt lat="43.638424" lon="1.600393">
        <ele>223.8</ele>
        <time>2014-03-08T15:49:32Z</time>
      </trkpt>
      <trkpt lat="43.638464" lon="1.600279">
        <ele>223.6</ele>
        <time>2014-03-08T15:49:42Z</time>
      </trkpt>
      <trkpt lat="43.638496" lon="1.600128">
        <ele>223.8</ele>
        <time>2014-03-08T15:49:55Z</time>
      </trkpt>
      <trkpt lat="43.638527" lon="1.599977">
        <ele>224.0</ele>
        <time>2014-03-08T15:50:06Z</time>
      </trkpt>
      <trkpt lat="43.638559" lon="1.599837">
        <ele>223.9</ele>
        <time>2014-03-08T15:50:17Z</time>
      </trkpt>
      <trkpt lat="43.638622" lon="1.599691">
        <ele>223.9</ele>
        <time>2014-03-08T15:50:29Z</time>
      </trkpt>
      <trkpt lat="43.638682" lon="1.599569">
        <ele>223.7</ele>
        <time>2014-03-08T15:50:39Z</time>
      </trkpt>
      <trkpt lat="43.638672" lon="1.599384">
        <ele>223.6</ele>
        <time>2014-03-08T15:50:50Z</time>
      </trkpt>
      <trkpt lat="43.638726" lon="1.599257">
        <ele>223.4</ele>
        <time>2014-03-08T15:51:02Z</time>
      </trkpt>
      <trkpt lat="43.638733" lon="1.599113">
        <ele>223.4</ele>
        <time>2014-03-08T15:51:16Z</time>
      </trkpt>
      <trkpt lat="43.638643" lon="1.599040">
        <ele>223.3</ele>
        <time>2014-03-08T15:51:26Z</time>
      </trkpt>
      <trkpt lat="43.638592" lon="1.598972">
        <ele>223.3</ele>
        <time>2014-03-08T15:51:54Z</time>
      </trkpt>
      <trkpt lat="43.638501" lon="1.598879">
        <ele>223.3</ele>
        <time>2014-03-08T15:52:04Z</time>
      </trkpt>
      <trkpt lat="43.638408" lon="1.598796">
        <ele>223.1</ele>
        <time>2014-03-08T15:52:17Z</time>
      </trkpt>
      <trkpt lat="43.638324" lon="1.598685">
        <ele>223.2</ele>
        <time>2014-03-08T15:52:29Z</time>
      </trkpt>
      <trkpt lat="43.638251" lon="1.598597">
        <ele>223.4</ele>
        <time>2014-03-08T15:52:40Z</time>
      </trkpt>
      <trkpt lat="43.638172" lon="1.598495">
        <ele>223.1</ele>
        <time>2014-03-08T15:52:52Z</time>
      </trkpt>
      <trkpt lat="43.638086" lon="1.598376">
        <ele>223.2</ele>
        <time>2014-03-08T15:53:06Z</time>
      </trkpt>
      <trkpt lat="43.637962" lon="1.598243">
        <ele>222.9</ele>
        <time>2014-03-08T15:53:23Z</time>
      </trkpt>
      <trkpt lat="43.637841" lon="1.598124">
        <ele>223.0</ele>
        <time>2014-03-08T15:53:42Z</time>
      </trkpt>
      <trkpt lat="43.637741" lon="1.597968">
        <ele>223.1</ele>
        <time>2014-03-08T15:53:58Z</time>
      </trkpt>
      <trkpt lat="43.637648" lon="1.597737">
        <ele>223.4</ele>
        <time>2014-03-08T15:54:13Z</time>
      </trkpt>
      <trkpt lat="43.637558" lon="1.597588">
        <ele>224.2</ele>
        <time>2014-03-08T15:54:33Z</time>
      </trkpt>
      <trkpt lat="43.637548" lon="1.597576">
        <ele>225.0</ele>
        <time>2014-03-08T15:56:03Z</time>
      </trkpt>
    </trkseg>
  </trk>
</gpx>

